createdAt,value
2018-11-04T00:00:57.815Z,17.42
2018-11-04T00:03:27.347Z,22.22
2018-11-04T00:05:55.710Z,19.75
2018-11-04T00:08:24.062Z,21.50
2018-11-04T00:10:52.538Z,24.65
2018-11-04T00:13:21.143Z,20.92
2018-11-04T00:15:49.464Z,23.55
2018-11-04T00:18:17.906Z,19.82
2018-11-04T00:20:46.256Z,23.07
2018-11-04T00:23:14.736Z,22.17
2018-11-04T00:25:43.138Z,25.27
2018-11-04T00:28:11.586Z,23.73
2018-11-04T00:30:39.973Z,25.32
2018-11-04T00:33:08.372Z,29.20
2018-11-04T00:35:36.790Z,24.85
2018-11-04T00:38:05.528Z,22.52
2018-11-04T00:40:33.934Z,23.90
2018-11-04T00:43:02.389Z,28.23
2018-11-04T00:45:31.026Z,20.97
2018-11-04T00:47:59.221Z,24.87
2018-11-04T00:50:27.668Z,24.40
2018-11-04T00:52:56.448Z,24.12
2018-11-04T00:55:25.027Z,23.55
2018-11-04T00:57:53.448Z,22.98
2018-11-04T01:00:21.828Z,31.48
2018-11-04T01:02:50.834Z,28.05
2018-11-04T01:05:19.347Z,26.80
2018-11-04T01:07:47.701Z,25.08
2018-11-04T01:10:16.078Z,24.57
2018-11-04T01:12:44.934Z,23.57
2018-11-04T01:15:14.282Z,23.62
2018-11-04T01:17:43.146Z,27.02
2018-11-04T01:20:14.140Z,26.62
2018-11-04T01:22:42.747Z,30.08
2018-11-04T01:25:11.172Z,30.77
2018-11-04T01:27:39.652Z,32.40
2018-11-04T01:30:11.172Z,26.82
2018-11-04T01:32:39.517Z,29.12
2018-11-04T01:35:08.205Z,25.10
2018-11-04T01:37:36.656Z,30.70
2018-11-04T01:40:05.957Z,30.37
2018-11-04T01:42:34.346Z,28.83
2018-11-04T01:45:02.734Z,25.55
2018-11-04T01:47:31.095Z,30.30
2018-11-04T01:49:59.482Z,24.02
2018-11-04T01:52:27.850Z,29.25
2018-11-04T01:54:56.427Z,25.45
2018-11-04T01:57:24.802Z,30.88
2018-11-04T01:59:53.195Z,32.65
2018-11-04T02:02:22.399Z,31.75
2018-11-04T02:04:50.790Z,27.35
2018-11-04T02:07:19.191Z,31.77
2018-11-04T02:09:47.585Z,31.97
2018-11-04T02:12:15.959Z,35.52
2018-11-04T02:14:44.307Z,37.75
2018-11-04T02:17:12.669Z,36.17
2018-11-04T02:19:40.949Z,31.52
2018-11-04T02:22:09.373Z,36.30
2018-11-04T02:24:37.699Z,35.63
2018-11-04T02:27:06.292Z,35.15
2018-11-04T02:29:34.627Z,29.77
2018-11-04T02:32:03.111Z,36.93
2018-11-04T02:34:31.411Z,33.23
2018-11-04T02:36:59.814Z,34.00
2018-11-04T02:39:28.180Z,30.27
2018-11-04T02:41:56.663Z,34.35
2018-11-04T02:44:25.213Z,32.90
2018-11-04T02:46:53.573Z,31.75
2018-11-04T02:49:22.077Z,34.25
2018-11-04T02:51:50.421Z,37.45
2018-11-04T02:54:18.831Z,36.85
2018-11-04T02:56:47.155Z,35.15
2018-11-04T02:59:15.581Z,31.95
2018-11-04T03:01:44.123Z,32.67
2018-11-04T03:04:12.481Z,36.45
2018-11-04T03:06:40.823Z,34.08
2018-11-04T03:09:09.799Z,35.20
2018-11-04T03:11:38.251Z,37.13
2018-11-04T03:14:06.650Z,34.73
2018-11-04T03:16:35.069Z,35.73
2018-11-04T03:19:03.454Z,35.85
2018-11-04T03:21:31.788Z,37.17
2018-11-04T03:24:00.175Z,34.98
2018-11-04T03:26:28.675Z,35.80
2018-11-04T03:28:57.050Z,33.45
2018-11-04T03:31:25.465Z,37.75
2018-11-04T03:33:53.804Z,34.98
2018-11-04T03:36:22.136Z,35.40
2018-11-04T03:38:50.520Z,38.17
2018-11-04T03:41:18.868Z,32.73
2018-11-04T03:43:47.150Z,37.45
2018-11-04T03:46:15.552Z,31.70
2018-11-04T03:48:43.893Z,36.53
2018-11-04T03:51:12.256Z,42.43
2018-11-04T03:53:40.651Z,35.25
2018-11-04T03:56:09.031Z,35.98
2018-11-04T03:58:37.446Z,33.90
2018-11-04T04:01:06.031Z,35.70
2018-11-04T04:03:34.385Z,29.50
2018-11-04T04:06:02.793Z,29.20
2018-11-04T04:08:31.148Z,33.42
2018-11-04T04:10:59.472Z,33.10
2018-11-04T04:13:27.880Z,31.00
2018-11-04T04:15:56.310Z,38.73
2018-11-04T04:18:24.727Z,33.10
2018-11-04T04:20:58.251Z,31.77
2018-11-04T04:23:26.648Z,35.85
2018-11-04T04:25:55.036Z,33.50
2018-11-04T04:28:23.454Z,36.28
2018-11-04T04:30:51.836Z,32.42
2018-11-04T04:33:20.239Z,34.15
2018-11-04T04:35:48.632Z,37.55
2018-11-04T04:38:17.022Z,33.10
2018-11-04T04:40:45.428Z,41.63
2018-11-04T04:43:13.831Z,34.90
2018-11-04T04:45:42.204Z,38.23
2018-11-04T04:48:10.583Z,38.48
2018-11-04T04:50:38.957Z,37.03
2018-11-04T04:53:07.525Z,37.65
2018-11-04T04:55:35.964Z,38.85
2018-11-04T04:58:04.536Z,39.05
2018-11-04T05:00:33.186Z,38.55
2018-11-04T05:03:01.555Z,35.75
2018-11-04T05:05:30.018Z,37.15
2018-11-04T05:07:58.467Z,31.70
2018-11-04T05:10:26.860Z,36.93
2018-11-04T05:12:55.312Z,36.85
2018-11-04T05:15:23.738Z,36.35
2018-11-04T05:17:52.162Z,38.75
2018-11-04T05:20:20.517Z,44.18
2018-11-04T05:22:48.878Z,40.03
2018-11-04T05:25:17.296Z,40.60
2018-11-04T05:27:45.723Z,39.88
2018-11-04T05:30:14.101Z,45.73
2018-11-04T05:32:42.496Z,38.28
2018-11-04T05:35:10.911Z,47.45
2018-11-04T05:37:39.269Z,47.55
2018-11-04T05:40:08.007Z,42.93
2018-11-04T05:42:36.415Z,42.13
2018-11-04T05:45:05.557Z,46.70
2018-11-04T05:47:34.848Z,44.93
2018-11-04T05:50:03.432Z,42.78
2018-11-04T05:52:31.863Z,43.35
2018-11-04T05:55:00.416Z,37.50
2018-11-04T05:57:28.778Z,39.98
2018-11-04T05:59:57.270Z,39.58
2018-11-04T06:02:25.687Z,40.10
2018-11-04T06:04:54.109Z,47.35
2018-11-04T06:07:22.500Z,44.03
2018-11-04T06:09:50.896Z,40.25
2018-11-04T06:12:19.342Z,39.95
2018-11-04T06:14:47.772Z,37.95
2018-11-04T06:17:16.157Z,40.43
2018-11-04T06:19:44.531Z,39.63
2018-11-04T06:22:12.928Z,33.95
2018-11-04T06:24:41.329Z,37.35
2018-11-04T06:27:09.750Z,42.55
2018-11-04T06:29:38.170Z,44.65
2018-11-04T06:32:06.581Z,43.05
2018-11-04T06:34:35.035Z,35.98
2018-11-04T06:37:03.398Z,45.08
2018-11-04T06:39:31.781Z,39.45
2018-11-04T06:42:00.184Z,48.73
2018-11-04T06:44:28.561Z,47.17
2018-11-04T06:46:56.909Z,38.35
2018-11-04T06:49:25.276Z,40.67
2018-11-04T06:51:53.670Z,42.93
2018-11-04T06:54:22.030Z,43.30
2018-11-04T06:56:50.405Z,42.65
2018-11-04T06:59:18.775Z,44.08
2018-11-04T07:01:47.122Z,42.98
2018-11-04T07:04:24.977Z,36.13
2018-11-04T07:06:53.423Z,43.30
2018-11-04T07:09:21.817Z,41.88
2018-11-04T07:11:50.408Z,46.53
2018-11-04T07:14:19.230Z,44.58
2018-11-04T07:16:47.666Z,46.08
2018-11-04T07:19:16.476Z,39.73
2018-11-04T07:21:45.415Z,40.92
2018-11-04T07:24:13.858Z,38.50
2018-11-04T07:26:42.255Z,38.23
2018-11-04T07:29:10.856Z,43.87
2018-11-04T07:31:39.214Z,39.67
2018-11-04T07:34:07.827Z,45.88
2018-11-04T07:36:36.252Z,47.55
2018-11-04T07:39:08.190Z,50.08
2018-11-04T07:41:36.543Z,50.35
2018-11-04T07:44:05.006Z,44.75
2018-11-04T07:46:33.395Z,50.23
2018-11-04T07:49:01.798Z,49.13
2018-11-04T07:51:30.253Z,42.53
2018-11-04T07:53:58.565Z,48.73
2018-11-04T07:56:26.980Z,43.10
2018-11-04T07:58:55.386Z,41.85
2018-11-04T08:01:23.787Z,46.48
2018-11-04T08:03:52.225Z,50.25
2018-11-04T08:06:20.563Z,45.83
2018-11-04T08:08:49.074Z,44.10
2018-11-04T08:11:17.445Z,46.80
2018-11-04T08:13:46.062Z,43.85
2018-11-04T08:16:14.424Z,45.50
2018-11-04T08:18:42.796Z,50.65
2018-11-04T08:21:11.288Z,49.35
2018-11-04T08:23:39.748Z,45.58
2018-11-04T08:26:08.094Z,45.78
2018-11-04T08:28:36.482Z,53.90
2018-11-04T08:31:04.931Z,44.05
2018-11-04T08:33:33.348Z,44.38
2018-11-04T08:36:01.716Z,50.88
2018-11-04T08:38:30.099Z,51.13
2018-11-04T08:40:58.483Z,46.85
2018-11-04T08:43:26.872Z,46.53
2018-11-04T08:45:55.379Z,48.65
2018-11-04T08:48:23.695Z,44.83
2018-11-04T08:50:52.086Z,42.55
2018-11-04T08:53:20.474Z,49.48
2018-11-04T08:55:48.844Z,48.15
2018-11-04T08:58:17.221Z,51.25
2018-11-04T09:00:45.704Z,49.65
2018-11-04T09:03:14.076Z,41.10
2018-11-04T09:05:42.500Z,50.28
2018-11-04T09:08:10.905Z,43.10
2018-11-04T09:10:39.300Z,43.70
2018-11-04T09:13:07.647Z,46.58
2018-11-04T09:15:36.118Z,45.50
2018-11-04T09:18:04.641Z,43.05
2018-11-04T09:20:33.027Z,42.88
2018-11-04T09:23:01.391Z,42.45
2018-11-04T09:25:29.767Z,44.90
2018-11-04T09:27:58.195Z,43.13
2018-11-04T09:30:26.564Z,48.10
2018-11-04T09:32:54.983Z,48.10
2018-11-04T09:35:23.444Z,45.20
2018-11-04T09:37:51.795Z,44.53
2018-11-04T09:40:20.213Z,45.33
2018-11-04T09:42:48.784Z,44.08
2018-11-04T09:45:17.197Z,46.18
2018-11-04T09:47:45.558Z,43.23
2018-11-04T09:50:14.227Z,44.35
2018-11-04T09:52:43.270Z,46.85
2018-11-04T09:55:12.316Z,47.05
2018-11-04T09:57:40.988Z,45.05
2018-11-04T10:00:10.739Z,42.33
2018-11-04T10:02:39.266Z,45.00
2018-11-04T10:05:09.213Z,43.33
2018-11-04T10:07:38.034Z,42.43
2018-11-04T10:10:09.640Z,42.83
2018-11-04T10:12:38.048Z,41.83
2018-11-04T10:15:07.014Z,43.38
2018-11-04T10:17:36.445Z,44.13
2018-11-04T10:20:05.959Z,39.03
2018-11-04T10:22:33.922Z,39.03
2018-11-04T10:25:03.038Z,42.55
2018-11-04T10:27:31.424Z,39.88
2018-11-04T10:29:59.853Z,41.75
2018-11-04T10:32:28.384Z,38.78
2018-11-04T10:34:56.702Z,44.18
2018-11-04T10:37:25.141Z,43.70
2018-11-04T10:39:53.480Z,39.75
2018-11-04T10:42:21.893Z,39.67
2018-11-04T10:44:50.322Z,40.15
2018-11-04T10:47:18.738Z,41.70
2018-11-04T10:49:47.122Z,41.00
2018-11-04T10:52:15.451Z,39.90
2018-11-04T10:54:43.852Z,49.88
2018-11-04T10:57:12.252Z,45.12
2018-11-04T10:59:40.612Z,39.08
2018-11-04T11:02:09.006Z,42.90
2018-11-04T11:04:37.441Z,44.42
2018-11-04T11:07:06.137Z,44.03
2018-11-04T11:09:34.524Z,45.38
2018-11-04T11:12:03.548Z,47.35
2018-11-04T11:14:31.919Z,40.30
2018-11-04T11:17:00.483Z,41.80
2018-11-04T11:19:28.947Z,45.65
2018-11-04T11:21:57.338Z,40.60
2018-11-04T11:24:25.711Z,42.90
2018-11-04T11:26:54.107Z,43.63
2018-11-04T11:29:22.487Z,44.38
2018-11-04T11:31:50.909Z,41.15
2018-11-04T11:34:19.275Z,40.70
2018-11-04T11:36:47.681Z,42.15
2018-11-04T11:39:16.063Z,42.27
2018-11-04T11:41:44.412Z,45.17
2018-11-04T11:44:12.836Z,45.48
2018-11-04T11:46:41.204Z,45.95
2018-11-04T11:49:09.797Z,43.15
2018-11-04T11:51:41.364Z,42.33
2018-11-04T11:54:10.124Z,45.10
2018-11-04T11:56:38.585Z,43.05
2018-11-04T11:59:07.144Z,43.10
2018-11-04T12:01:35.600Z,41.88
2018-11-04T12:04:03.970Z,44.95
2018-11-04T12:06:32.394Z,45.33
2018-11-04T12:09:00.868Z,45.15
2018-11-04T12:11:29.287Z,49.63
2018-11-04T12:13:57.957Z,42.03
2018-11-04T12:16:26.356Z,46.20
2018-11-04T12:18:54.876Z,44.20
2018-11-04T12:21:24.349Z,45.98
2018-11-04T12:23:52.812Z,46.42
2018-11-04T12:26:21.238Z,43.90
2018-11-04T12:28:49.688Z,39.90
2018-11-04T12:31:19.182Z,41.73
2018-11-04T12:33:47.580Z,46.05
2018-11-04T12:36:16.020Z,42.75
2018-11-04T12:38:44.639Z,42.25
2018-11-04T12:41:12.994Z,42.45
2018-11-04T12:43:41.901Z,43.85
2018-11-04T12:46:10.813Z,44.58
2018-11-04T12:48:39.233Z,40.85
2018-11-04T12:51:07.659Z,48.20
2018-11-04T12:53:36.089Z,42.62
2018-11-04T12:56:04.610Z,44.20
2018-11-04T12:58:33.036Z,42.53
2018-11-04T13:01:03.175Z,40.63
2018-11-04T13:03:31.590Z,41.65
2018-11-04T13:06:00.008Z,42.33
2018-11-04T13:08:28.479Z,46.83
2018-11-04T13:10:56.866Z,44.18
2018-11-04T13:13:25.402Z,41.55
2018-11-04T13:15:53.886Z,45.58
2018-11-04T13:18:22.387Z,42.75
2018-11-04T13:20:50.859Z,39.13
2018-11-04T13:23:20.139Z,41.68
2018-11-04T13:25:49.151Z,41.42
2018-11-04T13:28:17.624Z,42.33
2018-11-04T13:30:46.883Z,41.13
2018-11-04T13:33:15.596Z,44.63
2018-11-04T13:35:44.437Z,39.70
2018-11-04T13:38:13.193Z,40.60
2018-11-04T13:40:41.603Z,44.38
2018-11-04T13:43:10.561Z,39.53
2018-11-04T13:45:38.900Z,39.80
2018-11-04T13:48:09.576Z,43.50
2018-11-04T13:50:38.030Z,42.17
2018-11-04T13:53:06.437Z,40.30
2018-11-04T13:55:34.862Z,38.43
2018-11-04T13:58:03.441Z,37.37
2018-11-04T14:00:32.460Z,38.07
2018-11-04T14:03:00.897Z,38.90
2018-11-04T14:05:29.270Z,36.33
2018-11-04T14:07:57.905Z,33.50
2018-11-04T14:10:26.384Z,43.20
2018-11-04T14:12:54.970Z,41.10
2018-11-04T14:15:24.862Z,40.00
2018-11-04T14:17:56.530Z,38.93
2018-11-04T14:20:25.174Z,39.83
2018-11-04T14:22:53.810Z,38.23
2018-11-04T14:25:22.168Z,41.25
2018-11-04T14:27:50.648Z,39.38
2018-11-04T14:30:20.335Z,41.43
2018-11-04T14:32:49.019Z,37.30
2018-11-04T14:35:18.533Z,38.42
2018-11-04T14:37:47.317Z,37.20
2018-11-04T14:40:17.103Z,33.60
2018-11-04T14:42:46.017Z,38.53
2018-11-04T14:45:14.904Z,38.80
2018-11-04T14:47:44.270Z,35.63
2018-11-04T14:50:14.153Z,37.23
2018-11-04T14:52:42.703Z,42.30
2018-11-04T14:55:12.234Z,37.10
2018-11-04T14:57:40.837Z,39.15
2018-11-04T15:00:12.449Z,38.25
2018-11-04T15:02:41.216Z,36.53
2018-11-04T15:05:11.609Z,41.30
2018-11-04T15:07:40.174Z,37.63
2018-11-04T15:10:10.589Z,40.48
2018-11-04T15:12:39.311Z,34.33
2018-11-04T15:15:09.441Z,37.35
2018-11-04T15:17:38.056Z,39.13
2018-11-04T15:20:07.101Z,38.83
2018-11-04T15:22:35.559Z,36.05
2018-11-04T15:25:04.313Z,42.35
2018-11-04T15:27:32.760Z,39.75
2018-11-04T15:30:01.238Z,35.20
2018-11-04T15:32:30.828Z,37.03
2018-11-04T15:34:59.829Z,35.45
2018-11-04T15:37:28.802Z,34.55
2018-11-04T15:39:58.132Z,35.63
2018-11-04T15:42:27.589Z,35.48
2018-11-04T15:44:56.414Z,40.48
2018-11-04T15:47:25.653Z,35.23
2018-11-04T15:49:54.203Z,36.48
2018-11-04T15:52:22.708Z,35.03
2018-11-04T15:54:51.581Z,34.53
2018-11-04T15:57:20.663Z,33.80
2018-11-04T15:59:50.726Z,32.58
2018-11-04T16:02:22.474Z,32.50
2018-11-04T16:04:58.400Z,31.37
2018-11-04T16:07:28.141Z,33.55
2018-11-04T16:09:57.050Z,34.63
2018-11-04T16:12:26.363Z,34.78
2018-11-04T16:14:55.745Z,34.08
2018-11-04T16:17:24.182Z,33.67
2018-11-04T16:19:52.830Z,32.83
2018-11-04T16:22:21.813Z,33.45
2018-11-04T16:24:50.441Z,32.45
2018-11-04T16:27:18.901Z,34.38
2018-11-04T16:29:47.529Z,37.00
2018-11-04T16:32:15.955Z,32.78
2018-11-04T16:34:44.557Z,29.85
2018-11-04T16:37:14.117Z,30.92
2018-11-04T16:39:45.360Z,29.70
2018-11-04T16:42:15.039Z,30.75
2018-11-04T16:44:44.516Z,28.50
2018-11-04T16:47:14.733Z,39.18
2018-11-04T16:49:44.144Z,32.13
2018-11-04T16:52:13.224Z,30.05
2018-11-04T16:54:41.612Z,27.48
2018-11-04T16:57:10.706Z,29.45
2018-11-04T16:59:40.335Z,31.27
2018-11-04T17:02:09.183Z,29.10
2018-11-04T17:04:37.822Z,30.27
2018-11-04T17:07:12.917Z,29.18
2018-11-04T17:09:41.421Z,29.63
2018-11-04T17:12:10.899Z,29.15
2018-11-04T17:14:40.685Z,25.27
2018-11-04T17:17:09.950Z,29.12
2018-11-04T17:19:38.377Z,25.15
2018-11-04T17:22:07.692Z,35.17
2018-11-04T17:24:36.148Z,27.55
2018-11-04T17:27:04.613Z,28.25
2018-11-04T17:29:33.143Z,28.55
2018-11-04T17:32:02.524Z,28.70
2018-11-04T17:34:30.961Z,24.52
2018-11-04T17:36:59.425Z,30.90
2018-11-04T17:39:27.882Z,26.25
2018-11-04T17:41:56.566Z,26.23
2018-11-04T17:44:25.608Z,26.70
2018-11-04T17:46:53.993Z,27.00
2018-11-04T17:49:22.697Z,26.10
2018-11-04T17:51:51.288Z,30.20
2018-11-04T17:54:19.707Z,30.20
2018-11-04T17:56:48.149Z,26.48
2018-11-04T17:59:16.581Z,31.07
2018-11-04T18:01:45.043Z,22.80
2018-11-04T18:04:13.450Z,31.20
2018-11-04T18:06:42.063Z,25.85
2018-11-04T18:09:10.508Z,29.77
2018-11-04T18:11:39.393Z,27.85
2018-11-04T18:14:08.182Z,27.32
2018-11-04T18:16:36.649Z,26.12
2018-11-04T18:19:05.495Z,25.52
2018-11-04T18:21:33.955Z,25.52
2018-11-04T18:24:09.277Z,23.92
2018-11-04T18:26:38.113Z,24.87
2018-11-04T18:29:10.799Z,27.27
2018-11-04T18:31:40.313Z,24.07
2018-11-04T18:34:09.595Z,25.97
2018-11-04T18:36:38.805Z,24.07
2018-11-04T18:39:10.303Z,27.17
2018-11-04T18:41:39.087Z,23.60
2018-11-04T18:44:08.209Z,29.52
2018-11-04T18:46:37.209Z,25.48
2018-11-04T18:49:11.797Z,24.60
2018-11-04T18:51:41.521Z,22.58
2018-11-04T18:54:10.317Z,21.65
2018-11-04T18:56:40.419Z,27.45
2018-11-04T18:59:09.702Z,25.02
2018-11-04T19:01:38.143Z,24.00
2018-11-04T19:04:06.720Z,25.72
2018-11-04T19:06:36.029Z,22.70
2018-11-04T19:09:07.137Z,21.57
2018-11-04T19:11:35.729Z,26.10
2018-11-04T19:14:04.153Z,23.67
2018-11-04T19:16:32.631Z,25.82
2018-11-04T19:19:01.331Z,24.52
2018-11-04T19:21:30.054Z,27.70
2018-11-04T19:23:59.283Z,25.08
2018-11-04T19:26:27.791Z,24.35
2018-11-04T19:28:56.249Z,23.80
2018-11-04T19:31:25.216Z,24.63
2018-11-04T19:33:53.603Z,23.15
2018-11-04T19:36:23.000Z,20.65
2018-11-04T19:38:54.766Z,21.35
2018-11-04T19:41:23.876Z,22.80
2018-11-04T19:43:52.284Z,24.02
2018-11-04T19:46:20.758Z,23.38
2018-11-04T19:48:49.354Z,24.25
2018-11-04T19:51:20.336Z,22.00
2018-11-04T19:53:49.775Z,21.95
2018-11-04T19:56:18.782Z,20.40
2018-11-04T19:58:47.959Z,21.70
2018-11-04T20:01:18.196Z,25.90
2018-11-04T20:03:46.774Z,21.77
2018-11-04T20:06:15.206Z,23.07
2018-11-04T20:08:48.769Z,21.33
2018-11-04T20:11:17.768Z,21.37
2018-11-04T20:13:51.697Z,23.92
2018-11-04T20:16:21.115Z,20.85
2018-11-04T20:18:55.083Z,20.10
2018-11-04T20:21:23.939Z,20.92
2018-11-04T20:23:52.440Z,19.92
2018-11-04T20:26:20.881Z,21.20
2018-11-04T20:28:49.299Z,20.45
2018-11-04T20:31:23.177Z,18.12
2018-11-04T20:33:51.541Z,18.92
2018-11-04T20:36:20.041Z,21.82
2018-11-04T20:38:53.715Z,18.02
2018-11-04T20:41:28.942Z,18.32
2018-11-04T20:43:57.377Z,19.48
2018-11-04T20:46:25.829Z,21.42
2018-11-04T20:49:01.151Z,21.65
2018-11-04T20:51:29.926Z,19.02
2018-11-04T20:53:58.406Z,18.30
2018-11-04T20:58:33.387Z,18.00
2018-11-04T21:01:03.015Z,17.10
2018-11-04T21:03:34.202Z,17.00
2018-11-04T21:06:02.885Z,15.98
2018-11-04T21:08:32.842Z,17.77
2018-11-04T21:11:01.527Z,17.27
2018-11-04T21:13:30.278Z,15.68
2018-11-04T21:15:58.721Z,16.90
2018-11-04T21:18:27.238Z,15.28
2018-11-04T21:20:55.744Z,17.07
2018-11-04T21:23:24.110Z,15.00
2018-11-04T21:25:52.605Z,17.10
2018-11-04T21:28:21.713Z,16.70
2018-11-04T21:30:53.405Z,16.62
2018-11-04T21:33:21.958Z,15.40
2018-11-04T21:35:51.018Z,16.12
2018-11-04T21:38:22.333Z,17.95
2018-11-04T21:40:51.273Z,15.83
2018-11-04T21:43:20.200Z,14.63
2018-11-04T21:45:48.919Z,15.72
2018-11-04T21:48:34.607Z,17.48
2018-11-04T21:51:03.084Z,16.90
2018-11-04T21:53:33.538Z,15.65
2018-11-04T21:56:06.463Z,16.55
2018-11-04T21:58:35.944Z,17.00
2018-11-04T22:01:05.395Z,16.10
2018-11-04T22:03:37.095Z,17.15
2018-11-04T22:06:05.759Z,14.23
2018-11-04T22:08:44.848Z,14.60
2018-11-04T22:11:13.279Z,14.15
2018-11-04T22:13:45.079Z,15.68
2018-11-04T22:16:13.572Z,13.43
2018-11-04T22:18:42.074Z,16.37
2018-11-04T22:21:11.531Z,15.93
2018-11-04T22:23:41.529Z,18.55
2018-11-04T22:26:10.004Z,15.80
2018-11-04T22:28:38.471Z,16.70
2018-11-04T22:31:08.659Z,18.65
2018-11-04T22:33:37.062Z,18.48
2018-11-04T22:36:06.957Z,17.20
2018-11-04T22:38:36.288Z,16.80
2018-11-04T22:41:04.842Z,16.93
2018-11-04T22:43:33.238Z,15.15
2018-11-04T22:46:01.843Z,21.02
2018-11-04T22:48:40.334Z,19.85
2018-11-04T22:51:08.780Z,20.08
2018-11-04T22:53:38.837Z,15.50
2018-11-04T22:56:07.466Z,19.15
2018-11-04T22:58:35.693Z,19.12
2018-11-04T23:01:04.076Z,21.27
2018-11-04T23:03:32.514Z,15.78
2018-11-04T23:06:06.882Z,16.07
2018-11-04T23:08:35.393Z,17.45
2018-11-04T23:11:03.868Z,19.85
2018-11-04T23:13:32.410Z,19.02
2018-11-04T23:16:00.829Z,18.40
2018-11-04T23:18:29.279Z,17.82
2018-11-04T23:20:57.611Z,17.23
2018-11-04T23:23:26.119Z,19.02
2018-11-04T23:25:54.492Z,22.65
2018-11-04T23:28:22.822Z,18.87
2018-11-04T23:30:51.434Z,19.40
2018-11-04T23:33:19.817Z,18.50
2018-11-04T23:35:48.260Z,19.77
2018-11-04T23:38:16.632Z,18.55
2018-11-04T23:40:45.041Z,18.57
2018-11-04T23:43:13.420Z,16.55
2018-11-04T23:45:41.826Z,19.10
2018-11-04T23:48:10.176Z,18.60
2018-11-04T23:50:38.552Z,17.87
2018-11-04T23:53:07.097Z,18.75
2018-11-04T23:55:35.454Z,17.65
2018-11-04T23:58:03.848Z,18.25
